createdAt,value
2019-03-04T00:00:33.514Z,99167.67
2019-03-04T00:03:02.535Z,99169.00
2019-03-04T00:05:30.923Z,99154.20
2019-03-04T00:07:59.339Z,99160.45
2019-03-04T00:10:27.731Z,99162.20
2019-03-04T00:12:56.172Z,99145.86
2019-03-04T00:15:24.571Z,99146.27
2019-03-04T00:17:52.997Z,99134.70
2019-03-04T00:20:21.402Z,99130.63
2019-03-04T00:22:49.785Z,99132.27
2019-03-04T00:25:18.205Z,99130.34
2019-03-04T00:27:46.611Z,99125.73
2019-03-04T00:30:15.155Z,99124.51
2019-03-04T00:32:45.161Z,99116.12
2019-03-04T00:35:13.759Z,99101.13
2019-03-04T00:37:42.149Z,99104.27
2019-03-04T00:40:16.093Z,99098.81
2019-03-04T00:42:44.546Z,99107.79
2019-03-04T00:45:14.684Z,99097.28
2019-03-04T00:47:43.123Z,99093.40
2019-03-04T00:50:19.807Z,99104.78
2019-03-04T00:52:48.275Z,99104.67
2019-03-04T00:55:23.194Z,99100.16
2019-03-04T00:57:51.600Z,99097.50
2019-03-04T01:00:23.060Z,99095.75
2019-03-04T01:02:51.436Z,99097.03
2019-03-04T01:05:19.827Z,99101.73
2019-03-04T01:07:48.330Z,99091.30
2019-03-04T01:10:17.371Z,99093.45
2019-03-04T01:12:46.353Z,99101.22
2019-03-04T01:15:17.595Z,99093.30
2019-03-04T01:17:46.035Z,99086.34
2019-03-04T01:20:18.072Z,99078.08
2019-03-04T01:22:46.520Z,99082.57
2019-03-04T01:25:17.295Z,99093.77
2019-03-04T01:27:45.697Z,99094.84
2019-03-04T01:30:19.990Z,99092.40
2019-03-04T01:32:48.561Z,99102.37
2019-03-04T01:35:16.971Z,99084.81
2019-03-04T01:37:45.359Z,99062.58
2019-03-04T01:40:22.254Z,99058.00
2019-03-04T01:42:50.810Z,99051.91
2019-03-04T01:45:19.805Z,99047.77
2019-03-04T01:47:48.251Z,99060.25
2019-03-04T01:50:18.890Z,99066.61
2019-03-04T01:52:47.845Z,99071.34
2019-03-04T01:55:18.356Z,99066.50
2019-03-04T01:57:47.111Z,99046.28
2019-03-04T02:00:22.915Z,98998.67
2019-03-04T02:02:55.165Z,99001.33
2019-03-04T02:05:23.544Z,99011.10
2019-03-04T02:07:54.459Z,99006.80
2019-03-04T02:10:22.163Z,98982.09
2019-03-04T02:12:50.634Z,98978.91
2019-03-04T02:15:22.303Z,98969.52
2019-03-04T02:17:50.698Z,98984.80
2019-03-04T02:20:19.426Z,98976.95
2019-03-04T02:22:48.434Z,98964.94
2019-03-04T02:25:45.842Z,98956.28
2019-03-04T02:28:13.216Z,98956.39
2019-03-04T02:30:41.637Z,98955.38
2019-03-04T02:33:10.116Z,98952.73
2019-03-04T02:35:38.495Z,98954.27
2019-03-04T02:38:06.865Z,98954.37
2019-03-04T02:40:35.282Z,98938.66
2019-03-04T02:43:03.666Z,98929.47
2019-03-04T02:45:32.065Z,98924.80
2019-03-04T02:48:00.480Z,98922.03
2019-03-04T02:50:28.912Z,98914.17
2019-03-04T02:52:57.304Z,98912.12
2019-03-04T02:55:29.729Z,98914.91
2019-03-04T02:57:57.376Z,98893.16
2019-03-04T03:00:25.707Z,98869.79
2019-03-04T03:02:54.174Z,98868.55
2019-03-04T03:05:22.536Z,98858.64
2019-03-04T03:07:50.943Z,98853.02
2019-03-04T03:10:20.936Z,98852.40
2019-03-04T03:12:49.307Z,98843.33
2019-03-04T03:15:19.610Z,98837.70
2019-03-04T03:17:48.094Z,98841.89
2019-03-04T03:20:17.048Z,98845.95
2019-03-04T03:22:46.629Z,98832.92
2019-03-04T03:25:16.163Z,98826.39
2019-03-04T03:27:44.577Z,98819.75
2019-03-04T03:30:21.186Z,98814.05
2019-03-04T03:32:49.634Z,98798.83
2019-03-04T03:35:18.074Z,98790.88
2019-03-04T03:37:46.486Z,98783.92
2019-03-04T03:40:19.297Z,98773.73
2019-03-04T03:42:51.569Z,98773.23
2019-03-04T03:45:19.952Z,98771.09
2019-03-04T03:47:48.362Z,98763.93
2019-03-04T03:50:17.414Z,98768.52
2019-03-04T03:52:46.589Z,98766.98
2019-03-04T03:55:16.936Z,98769.65
2019-03-04T03:57:45.337Z,98759.85
2019-03-04T04:00:24.552Z,98761.89
2019-03-04T04:02:52.927Z,98761.08
2019-03-04T04:05:21.408Z,98745.35
2019-03-04T04:07:49.815Z,98753.32
2019-03-04T04:10:19.172Z,98756.98
2019-03-04T04:12:47.623Z,98750.85
2019-03-04T04:15:17.101Z,98751.25
2019-03-04T04:17:45.484Z,98747.89
2019-03-04T04:20:13.951Z,98743.38
2019-03-04T04:22:42.332Z,98738.59
2019-03-04T04:25:13.498Z,98735.63
2019-03-04T04:27:41.953Z,98719.18
2019-03-04T04:30:19.745Z,98699.58
2019-03-04T04:32:48.118Z,98682.84
2019-03-04T04:35:16.540Z,98681.03
2019-03-04T04:37:44.928Z,98681.03
2019-03-04T04:40:14.174Z,98671.53
2019-03-04T04:42:42.559Z,98661.00
2019-03-04T04:45:12.666Z,98650.29
2019-03-04T04:47:42.912Z,98646.30
2019-03-04T04:50:16.061Z,98634.44
2019-03-04T04:52:44.459Z,98632.38
2019-03-04T04:55:12.856Z,98620.77
2019-03-04T04:57:41.225Z,98582.98
2019-03-04T05:00:18.462Z,98581.66
2019-03-04T05:02:46.840Z,98596.42
2019-03-04T05:05:15.232Z,98609.17
2019-03-04T05:07:43.922Z,98601.82
2019-03-04T05:10:22.390Z,98583.13
2019-03-04T05:12:50.802Z,98574.64
2019-03-04T05:15:19.326Z,98559.50
2019-03-04T05:17:47.797Z,98034.45
2019-03-04T05:20:26.227Z,98563.38
2019-03-04T05:25:49.655Z,98562.30
2019-03-04T05:28:17.985Z,98559.45
2019-03-04T05:30:46.397Z,98547.20
2019-03-04T05:33:14.798Z,98549.77
2019-03-04T05:35:43.190Z,98547.31
2019-03-04T05:38:11.592Z,98536.27
2019-03-04T05:40:41.064Z,98522.69
2019-03-04T05:43:09.464Z,98495.19
2019-03-04T05:45:38.960Z,98481.94
2019-03-04T05:48:07.754Z,98472.33
2019-03-04T05:50:36.344Z,98460.41
2019-03-04T05:53:08.594Z,98449.80
2019-03-04T05:55:37.004Z,98433.18
2019-03-04T05:58:05.396Z,98429.84
2019-03-04T06:00:35.430Z,98413.67
2019-03-04T06:03:08.783Z,98393.37
2019-03-04T06:05:37.199Z,98251.53
2019-03-04T06:08:07.212Z,98386.62
2019-03-04T06:10:35.622Z,98389.88
2019-03-04T06:13:04.024Z,98379.27
2019-03-04T06:15:32.621Z,98374.53
2019-03-04T06:18:00.991Z,98370.44
2019-03-04T06:20:29.594Z,98371.32
2019-03-04T06:22:57.995Z,98354.86
2019-03-04T06:25:30.662Z,98354.55
2019-03-04T06:27:59.050Z,98364.72
2019-03-04T06:30:31.340Z,98356.04
2019-03-04T06:32:59.744Z,98356.77
2019-03-04T06:35:28.141Z,98353.00
2019-03-04T06:37:56.530Z,98359.50
2019-03-04T06:40:25.317Z,98335.11
2019-03-04T06:42:53.716Z,98337.45
2019-03-04T06:45:22.163Z,98345.12
2019-03-04T06:47:50.599Z,98330.10
2019-03-04T06:50:39.989Z,98317.85
2019-03-04T06:53:08.408Z,98311.67
2019-03-04T06:55:54.174Z,98299.77
2019-03-04T06:58:22.598Z,98307.23
2019-03-04T07:00:53.531Z,98294.56
2019-03-04T07:03:24.871Z,98300.90
2019-03-04T07:05:54.077Z,98275.83
2019-03-04T07:08:37.619Z,97694.20
2019-03-04T07:11:07.194Z,98266.59
2019-03-04T07:13:35.616Z,98252.82
2019-03-04T07:16:03.991Z,98250.39
2019-03-04T07:18:32.393Z,98250.02
2019-03-04T07:21:00.799Z,98246.03
2019-03-04T07:23:29.200Z,98236.91
2019-03-04T07:25:57.601Z,98238.08
2019-03-04T07:28:26.055Z,98228.72
2019-03-04T07:30:54.487Z,98230.28
2019-03-04T07:33:23.796Z,98218.47
2019-03-04T07:35:52.212Z,98212.44
2019-03-04T07:38:23.672Z,98197.07
2019-03-04T07:40:52.076Z,98197.83
2019-03-04T07:43:20.477Z,98180.57
2019-03-04T07:45:48.879Z,98184.69
2019-03-04T07:48:27.056Z,98166.63
2019-03-04T07:51:06.172Z,98163.16
2019-03-04T07:53:34.568Z,98152.83
2019-03-04T07:56:02.962Z,98160.27
2019-03-04T07:58:31.348Z,98153.55
2019-03-04T08:01:03.449Z,98146.67
2019-03-04T08:03:31.839Z,98151.73
2019-03-04T08:06:04.115Z,98146.23
2019-03-04T08:08:33.571Z,98134.19
2019-03-04T08:11:10.657Z,98119.19
2019-03-04T08:13:48.054Z,98118.77
2019-03-04T08:16:20.451Z,98120.01
2019-03-04T08:18:48.851Z,98106.23
2019-03-04T08:21:17.246Z,98107.52
2019-03-04T08:23:45.651Z,98098.40
2019-03-04T08:26:14.093Z,98099.09
2019-03-04T08:28:42.651Z,98088.10
2019-03-04T08:31:11.457Z,98080.47
2019-03-04T08:33:39.923Z,98072.95
2019-03-04T08:36:08.329Z,98064.76
2019-03-04T08:38:40.552Z,98058.37
2019-03-04T08:41:08.948Z,98060.69
2019-03-04T08:43:37.344Z,98047.53
2019-03-04T08:46:05.748Z,98045.61
2019-03-04T08:48:34.123Z,98041.97
2019-03-04T08:51:02.569Z,98045.66
2019-03-04T08:53:34.014Z,98035.22
2019-03-04T08:56:02.848Z,98032.27
2019-03-04T08:58:31.302Z,98029.89
2019-03-04T09:00:59.707Z,98022.95
2019-03-04T09:03:28.087Z,98034.09
2019-03-04T09:05:56.504Z,98017.03
2019-03-04T09:08:24.880Z,98031.13
2019-03-04T09:10:53.299Z,98057.30
2019-03-04T09:13:21.689Z,98039.38
2019-03-04T09:15:53.755Z,98062.78
2019-03-04T09:18:21.297Z,98133.91
2019-03-04T09:20:49.693Z,98201.16
2019-03-04T09:23:18.116Z,98209.86
2019-03-04T09:25:53.294Z,98232.42
2019-03-04T09:28:24.513Z,98221.62
2019-03-04T09:30:52.878Z,98230.58
2019-03-04T09:33:21.284Z,98212.13
2019-03-04T09:35:49.803Z,98212.48
2019-03-04T09:38:18.158Z,98212.48
2019-03-04T09:40:46.539Z,98186.89
2019-03-04T09:43:15.060Z,98176.17
2019-03-04T09:45:43.455Z,98185.55
2019-03-04T09:48:15.607Z,97933.77
2019-03-04T09:50:44.066Z,98155.34
2019-03-04T09:53:12.471Z,98127.67
2019-03-04T09:55:42.483Z,98133.30
2019-03-04T09:58:10.859Z,98143.71
2019-03-04T10:01:04.282Z,98152.05
2019-03-04T10:04:00.607Z,98141.45
2019-03-04T10:07:02.905Z,98132.34
2019-03-04T10:10:00.369Z,98132.54
2019-03-04T10:12:40.396Z,98113.10
2019-03-04T10:15:36.275Z,98098.55
2019-03-04T10:18:19.512Z,98077.66
2019-03-04T10:21:03.882Z,98089.77
2019-03-04T10:23:35.557Z,98098.78
2019-03-04T10:26:09.789Z,98105.33
2019-03-04T10:28:53.453Z,98101.88
2019-03-04T10:31:32.711Z,98091.12
2019-03-04T10:34:18.817Z,98091.43
2019-03-04T10:37:10.108Z,98087.27
2019-03-04T10:39:58.141Z,98085.48
2019-03-04T10:42:47.227Z,98084.98
2019-03-04T10:45:33.714Z,98085.85
2019-03-04T10:48:02.134Z,98096.68
2019-03-04T10:50:30.611Z,98096.70
2019-03-04T10:52:59.058Z,98105.55
2019-03-04T10:55:27.453Z,98095.02
2019-03-04T10:57:55.950Z,98102.52
2019-03-04T11:00:24.417Z,98104.45
2019-03-04T11:02:52.801Z,98097.38
2019-03-04T11:05:21.208Z,98098.80
2019-03-04T11:07:49.589Z,98101.36
2019-03-04T11:10:18.172Z,98089.58
2019-03-04T11:12:46.585Z,98089.72
2019-03-04T11:15:26.877Z,98097.94
2019-03-04T11:17:56.599Z,98080.23
2019-03-04T11:20:27.543Z,98070.70
2019-03-04T11:23:00.087Z,98076.97
2019-03-04T11:25:28.120Z,98086.13
2019-03-04T11:28:02.019Z,98071.23
2019-03-04T11:30:47.335Z,98070.14
2019-03-04T11:33:21.383Z,98063.94
2019-03-04T11:35:52.252Z,98055.98
2019-03-04T11:38:39.613Z,98053.19
2019-03-04T11:41:10.150Z,98044.94
2019-03-04T11:43:41.396Z,98043.75
2019-03-04T11:46:09.781Z,98028.23
2019-03-04T11:48:38.194Z,98028.38
2019-03-04T11:51:06.583Z,98038.38
2019-03-04T11:53:34.994Z,98021.83
2019-03-04T11:56:06.240Z,98037.91
2019-03-04T11:58:34.655Z,98041.52
2019-03-04T12:01:14.041Z,98065.70
2019-03-04T12:03:42.424Z,98079.23
2019-03-04T12:06:10.813Z,98153.03
2019-03-04T12:08:43.610Z,98147.16
2019-03-04T12:11:15.858Z,98146.35
2019-03-04T12:13:48.728Z,98156.16
2019-03-04T12:16:18.249Z,98159.48
2019-03-04T12:18:46.644Z,98164.28
2019-03-04T12:21:15.219Z,98163.98
2019-03-04T12:23:44.727Z,98170.98
2019-03-04T12:26:13.272Z,98165.66
2019-03-04T12:28:45.867Z,98152.08
2019-03-04T12:31:15.360Z,98172.36
2019-03-04T12:33:57.255Z,98180.17
2019-03-04T12:36:25.709Z,98181.40
2019-03-04T12:38:57.403Z,98177.22
2019-03-04T12:41:29.948Z,98186.08
2019-03-04T12:43:57.819Z,98181.31
2019-03-04T12:46:30.087Z,98187.00
2019-03-04T12:49:03.829Z,98181.19
2019-03-04T12:51:34.680Z,98179.56
2019-03-04T12:54:05.682Z,98193.71
2019-03-04T12:56:37.927Z,98171.53
2019-03-04T12:59:17.219Z,98187.67
2019-03-04T13:01:49.190Z,98175.98
2019-03-04T13:04:21.138Z,98185.51
2019-03-04T13:07:03.000Z,98196.92
2019-03-04T13:09:31.902Z,98189.23
2019-03-04T13:12:09.114Z,98183.54
2019-03-04T13:14:37.598Z,98175.81
2019-03-04T13:17:06.292Z,98174.84
2019-03-04T13:19:34.921Z,98173.94
2019-03-04T13:22:08.751Z,98184.88
2019-03-04T13:24:36.705Z,98192.72
2019-03-04T13:27:09.910Z,98187.53
2019-03-04T13:29:38.408Z,98175.88
2019-03-04T13:32:10.023Z,98178.37
2019-03-04T13:34:44.100Z,98173.02
2019-03-04T13:37:12.500Z,98175.55
2019-03-04T13:39:49.325Z,98180.55
2019-03-04T13:42:21.692Z,98167.61
2019-03-04T13:44:52.259Z,98171.26
2019-03-04T13:47:20.755Z,98173.84
2019-03-04T13:49:49.474Z,98170.09
2019-03-04T13:52:20.155Z,98178.67
2019-03-04T13:54:48.628Z,98179.48
2019-03-04T13:57:17.121Z,98203.58
2019-03-04T13:59:48.888Z,98196.23
2019-03-04T14:02:17.597Z,98204.50
2019-03-04T14:04:46.042Z,98209.42
2019-03-04T14:07:37.846Z,98226.52
2019-03-04T14:10:16.002Z,98241.55
2019-03-04T14:12:44.555Z,98238.78
2019-03-04T14:15:22.237Z,98241.22
2019-03-04T14:17:52.847Z,98224.58
2019-03-04T14:20:51.389Z,98234.35
2019-03-04T14:23:16.042Z,98233.64
2019-03-04T14:25:45.551Z,98230.20
2019-03-04T14:28:13.957Z,98218.50
2019-03-04T14:30:42.396Z,98243.20
2019-03-04T14:33:10.891Z,98230.17
2019-03-04T14:35:39.330Z,98233.73
2019-03-04T14:38:13.040Z,98240.97
2019-03-04T14:40:41.620Z,98233.70
2019-03-04T14:43:10.024Z,98232.78
2019-03-04T14:45:41.142Z,98234.94
2019-03-04T14:48:09.621Z,98243.00
2019-03-04T14:50:43.674Z,98244.60
2019-03-04T14:53:20.031Z,98253.16
2019-03-04T14:55:51.056Z,98252.05
2019-03-04T14:58:23.372Z,98265.48
2019-03-04T15:01:08.852Z,98264.05
2019-03-04T15:03:28.076Z,98255.50
2019-03-04T15:06:06.641Z,98255.83
2019-03-04T15:08:29.907Z,98264.45
2019-03-04T15:11:00.769Z,98251.12
2019-03-04T15:13:29.164Z,98261.72
2019-03-04T15:16:01.420Z,98256.73
2019-03-04T15:18:27.680Z,98260.59
2019-03-04T15:20:57.126Z,98260.78
2019-03-04T15:23:25.513Z,98278.62
2019-03-04T15:25:53.972Z,98273.43
2019-03-04T15:28:26.267Z,98275.14
2019-03-04T15:31:00.505Z,98267.72
2019-03-04T15:33:31.503Z,98286.82
2019-03-04T15:35:59.894Z,98277.66
2019-03-04T15:38:32.386Z,98282.33
2019-03-04T15:41:00.029Z,98287.51
2019-03-04T15:43:28.346Z,98291.14
2019-03-04T15:46:06.648Z,98283.83
2019-03-04T15:48:39.543Z,98283.00
2019-03-04T15:51:19.964Z,98288.88
2019-03-04T15:53:47.426Z,98281.97
2019-03-04T15:56:22.969Z,98294.23
2019-03-04T15:58:58.316Z,98291.20
2019-03-04T16:01:26.915Z,98301.12
2019-03-04T16:03:56.348Z,98281.93
2019-03-04T16:06:26.902Z,98321.93
2019-03-04T16:08:55.360Z,98311.80
2019-03-04T16:11:24.236Z,98318.39
2019-03-04T16:13:56.541Z,98311.92
2019-03-04T16:16:25.123Z,98309.34
2019-03-04T16:18:54.686Z,98314.72
2019-03-04T16:21:23.316Z,98332.66
2019-03-04T16:23:52.858Z,98324.02
2019-03-04T16:26:21.287Z,98329.07
2019-03-04T16:28:51.365Z,98354.14
2019-03-04T16:31:19.810Z,98338.69
2019-03-04T16:33:49.444Z,98356.81
2019-03-04T16:36:18.373Z,98351.65
2019-03-04T16:38:46.822Z,98361.58
2019-03-04T16:41:17.315Z,98381.14
2019-03-04T16:43:45.864Z,98380.33
2019-03-04T16:46:14.377Z,98373.30
2019-03-04T16:48:45.414Z,98387.81
2019-03-04T16:51:16.277Z,98387.19
2019-03-04T16:53:48.527Z,98392.14
2019-03-04T16:56:17.067Z,98383.28
2019-03-04T16:58:48.044Z,98409.73
2019-03-04T17:01:16.690Z,98394.91
2019-03-04T17:03:48.288Z,98399.67
2019-03-04T17:06:21.780Z,98401.83
2019-03-04T17:08:54.406Z,98420.41
2019-03-04T17:11:31.206Z,98388.08
2019-03-04T17:13:59.932Z,98413.26
2019-03-04T17:16:34.192Z,98416.53
2019-03-04T17:19:02.669Z,98419.53
2019-03-04T17:21:31.256Z,98436.88
2019-03-04T17:23:59.665Z,98419.78
2019-03-04T17:26:28.466Z,98436.48
2019-03-04T17:28:57.106Z,98438.88
2019-03-04T17:31:29.268Z,98427.33
2019-03-04T17:33:57.737Z,98446.36
2019-03-04T17:36:26.182Z,98444.04
2019-03-04T17:38:54.601Z,98450.07
2019-03-04T17:41:24.144Z,98457.98
2019-03-04T17:43:52.579Z,98473.17
2019-03-04T17:46:20.967Z,98467.38
2019-03-04T17:48:53.368Z,98480.28
2019-03-04T17:51:21.771Z,98482.92
2019-03-04T17:53:50.150Z,98503.51
2019-03-04T17:56:18.718Z,98495.28
2019-03-04T17:59:19.585Z,98499.03
2019-03-04T18:01:46.439Z,98505.78
2019-03-04T18:04:14.841Z,98514.70
2019-03-04T18:06:44.299Z,98506.66
2019-03-04T18:09:13.493Z,98493.86
2019-03-04T18:11:41.893Z,98529.44
2019-03-04T18:14:12.862Z,98537.48
2019-03-04T18:16:42.243Z,98539.87
2019-03-04T18:19:10.816Z,98548.71
2019-03-04T18:21:40.046Z,98556.07
2019-03-04T18:24:11.015Z,98558.22
2019-03-04T18:26:46.815Z,98554.70
2019-03-04T18:29:28.738Z,98577.05
2019-03-04T18:32:14.119Z,98588.28
2019-03-04T18:35:05.028Z,98582.39
2019-03-04T18:38:09.082Z,98588.86
2019-03-04T18:40:40.587Z,98596.58
2019-03-04T18:43:23.843Z,98602.98
2019-03-04T18:46:18.172Z,98610.12
2019-03-04T18:49:00.088Z,98601.89
2019-03-04T18:51:29.451Z,98605.04
2019-03-04T18:54:01.439Z,98618.03
2019-03-04T18:56:35.809Z,98629.58
2019-03-04T18:59:04.732Z,98624.62
2019-03-04T19:01:36.073Z,98626.91
2019-03-04T19:04:05.839Z,98640.77
2019-03-04T19:06:37.039Z,98656.60
2019-03-04T19:09:09.122Z,98654.41
2019-03-04T19:11:39.238Z,98658.59
2019-03-04T19:14:07.930Z,98660.30
2019-03-04T19:16:41.547Z,98669.84
2019-03-04T19:19:14.099Z,98678.76
2019-03-04T19:21:43.294Z,98680.40
2019-03-04T19:24:11.776Z,98694.45
2019-03-04T19:26:43.941Z,98696.52
2019-03-04T19:29:16.854Z,98692.83
2019-03-04T19:31:46.958Z,98695.98
2019-03-04T19:34:18.542Z,98697.98
2019-03-04T19:36:49.755Z,98713.61
2019-03-04T19:39:18.371Z,98714.79
2019-03-04T19:41:46.791Z,98711.48
2019-03-04T19:44:15.257Z,98705.23
2019-03-04T19:46:46.447Z,98705.94
2019-03-04T19:49:15.617Z,98714.66
2019-03-04T19:51:44.464Z,98716.48
2019-03-04T19:54:15.534Z,98720.60
2019-03-04T19:56:44.001Z,98716.11
2019-03-04T19:59:12.959Z,98717.73
2019-03-04T20:01:42.614Z,98722.36
2019-03-04T20:04:11.201Z,98725.64
2019-03-04T20:06:39.656Z,98739.77
2019-03-04T20:09:08.930Z,98731.38
2019-03-04T20:11:37.652Z,98724.20
2019-03-04T20:14:06.112Z,98735.78
2019-03-04T20:16:34.514Z,98751.42
2019-03-04T20:19:03.045Z,98749.03
2019-03-04T20:21:31.505Z,98752.28
2019-03-04T20:23:59.898Z,98744.20
2019-03-04T20:26:28.303Z,98757.02
2019-03-04T20:28:56.857Z,98759.17
2019-03-04T20:31:25.315Z,98765.77
2019-03-04T20:33:57.547Z,98759.17
2019-03-04T20:36:26.089Z,98770.29
2019-03-04T20:38:54.683Z,98775.30
2019-03-04T20:41:23.191Z,98784.06
2019-03-04T20:43:51.550Z,98779.14
2019-03-04T20:46:20.025Z,98782.68
2019-03-04T20:48:48.420Z,98783.20
2019-03-04T20:51:16.834Z,98760.20
2019-03-04T20:53:45.560Z,98789.48
2019-03-04T20:56:16.501Z,98785.71
2019-03-04T20:58:44.896Z,98801.34
2019-03-04T21:01:16.045Z,98789.80
2019-03-04T21:03:45.281Z,98792.44
2019-03-04T21:06:14.016Z,98796.86
2019-03-04T21:08:42.405Z,98813.47
2019-03-04T21:11:11.085Z,98818.47
2019-03-04T21:13:39.628Z,98809.72
2019-03-04T21:16:08.225Z,98797.05
2019-03-04T21:18:40.792Z,98817.84
2019-03-04T21:21:09.285Z,98817.22
2019-03-04T21:23:37.664Z,98833.39
2019-03-04T21:26:09.478Z,98826.80
2019-03-04T21:29:10.626Z,98856.59
2019-03-04T21:31:42.428Z,98865.32
2019-03-04T21:34:46.549Z,98849.49
2019-03-04T21:37:26.881Z,98853.64
2019-03-04T21:39:58.348Z,98861.20
2019-03-04T21:42:29.807Z,98866.97
2019-03-04T21:45:09.986Z,98865.04
2019-03-04T21:47:47.232Z,98874.78
2019-03-04T21:50:18.835Z,98876.26
2019-03-04T21:52:50.391Z,98886.33
2019-03-04T21:55:21.962Z,98883.03
2019-03-04T21:57:51.606Z,98893.44
2019-03-04T22:00:24.374Z,98887.89
2019-03-04T22:03:10.959Z,98886.56
2019-03-04T22:05:49.728Z,98896.93
2019-03-04T22:08:10.083Z,98884.98
2019-03-04T22:10:38.489Z,98901.45
2019-03-04T22:13:07.385Z,98917.56
2019-03-04T22:15:35.868Z,98924.48
2019-03-04T22:18:05.276Z,98902.73
2019-03-04T22:20:36.478Z,98918.21
2019-03-04T22:23:05.208Z,98923.78
2019-03-04T22:25:36.898Z,98922.46
2019-03-04T22:28:08.440Z,98928.06
2019-03-04T22:30:39.353Z,98935.02
2019-03-04T22:33:07.945Z,98944.92
2019-03-04T22:35:36.351Z,98954.33
2019-03-04T22:38:05.890Z,98949.68
2019-03-04T22:40:34.305Z,98960.08
2019-03-04T22:43:02.696Z,98959.38
2019-03-04T22:45:31.112Z,98976.52
2019-03-04T22:47:59.511Z,98963.52
2019-03-04T22:50:27.914Z,98979.16
2019-03-04T22:52:58.697Z,98976.47
2019-03-04T22:55:37.968Z,98968.88
2019-03-04T22:58:06.639Z,98984.67
2019-03-04T23:00:54.612Z,98995.87
2019-03-04T23:03:25.838Z,98978.91
2019-03-04T23:06:03.253Z,98991.92
2019-03-04T23:08:33.794Z,99011.99
2019-03-04T23:11:02.335Z,98986.27
2019-03-04T23:13:48.673Z,99004.73
2019-03-04T23:16:26.379Z,99010.48
2019-03-04T23:18:54.773Z,99018.25
2019-03-04T23:21:24.243Z,99016.94
2019-03-04T23:23:52.660Z,99017.74
2019-03-04T23:26:21.059Z,99018.36
2019-03-04T23:28:49.441Z,99035.17
2019-03-04T23:31:17.832Z,99028.39
2019-03-04T23:33:46.300Z,99029.42
2019-03-04T23:36:18.465Z,99021.51
2019-03-04T23:38:46.833Z,99027.30
2019-03-04T23:41:16.266Z,99014.20
2019-03-04T23:43:44.680Z,99027.72
2019-03-04T23:46:13.088Z,99029.13
2019-03-04T23:48:42.135Z,99038.69
2019-03-04T23:51:10.545Z,99038.38
2019-03-04T23:53:38.959Z,99022.91
2019-03-04T23:56:07.382Z,99025.70
2019-03-04T23:58:35.830Z,99028.48
